Time;durP1;ratioP1;P1;durP2;ratioP2;P2;SDS_P1;SDS_P2;PMS_P1;PMS_P2;Temp;Humidity;BMP_temperature;BMP_pressure;BME280_temperature;BME280_humidity;BME280_pressure;Samples;Min_cycle;Max_cycle;Signal;HPM_P1;HPM_P2
2021/12/14 00:01:23;;;;;;;;;;;;;;;;;;5032972;28;20003;-76
2021/12/14 00:03:52;;;;;;;;;;;;;;;;;;5034897;28;19933;-76
2021/12/14 00:06:18;;;;;;;;;;;;;;;;;;5016965;28;19921;-76
2021/12/14 00:08:51;;;;;;;;;;;;;;;;;;5035105;28;19933;-74
2021/12/14 00:12:06;;;;;;;;;;;;;;;;;;5018449;28;19921;-76
2021/12/14 00:16:46;;;;;;;;;;;;;;;;;;5035395;28;19960;-76
2021/12/14 00:19:11;;;;;;;;;;;;;;;;;;5036455;28;19921;-76
2021/12/14 00:21:36;;;;;;;;;;;;;;;;;;5035832;28;20037;-76
2021/12/14 00:24:06;;;;;;;;;;;;;;;;;;5036837;28;20296;-76
2021/12/14 00:26:32;;;;;;;;;;;;;;;;;;5018894;28;19920;-76
2021/12/14 00:28:57;;;;;;;;;;;;;;;;;;5035924;28;19983;-76
2021/12/14 00:31:22;;;;;;;;;;;;;;;;;;5019812;28;19929;-76
2021/12/14 00:33:54;;;;;;;;;;;;;;;;;;5034759;28;19953;-76
2021/12/14 00:36:19;;;;;;;;;;;;;;;;;;5035121;28;19960;-75
2021/12/14 00:38:45;;;;;;;;;;;;;;;;;;5035675;28;20305;-75
2021/12/14 00:41:16;;;;;;;;;;;;;;;;;;5017545;28;19947;-76
2021/12/14 00:43:42;;;;;;;;;;;;;;;;;;5035301;28;20223;-76
2021/12/14 00:46:10;;;;;;;;;;;;;;;;;;5038813;28;19951;-76
2021/12/14 00:48:38;;;;;;;;;;;;;;;;;;5021699;28;19916;-76
2021/12/14 00:51:04;;;;;;;;;;;;;;;;;;5034436;28;19932;-76
2021/12/14 00:53:29;;;;;;;;;;;;;;;;;;5035256;28;20246;-76
2021/12/14 00:55:55;;;;;;;;;;;;;;;;;;5035407;28;19990;-75
2021/12/14 00:58:23;;;;;;;;;;;;;;;;;;5017185;28;19920;-75
2021/12/14 01:00:51;;;;;;;;;;;;;;;;;;5017099;28;19932;-75
2021/12/14 01:03:16;;;;;;;;;;;;;;;;;;5034905;28;20338;-76
2021/12/14 01:05:43;;;;;;;;;;;;;;;;;;5034160;28;19928;-76
2021/12/14 01:08:09;;;;;;;;;;;;;;;;;;5017427;28;19948;-76
2021/12/14 01:10:36;;;;;;;;;;;;;;;;;;5034364;28;20297;-74
2021/12/14 01:13:06;;;;;;;;;;;;;;;;;;5034103;28;20368;-75
2021/12/14 01:15:50;;;;;;;;;;;;;;;;;;5017189;28;20329;-75
2021/12/14 01:18:30;;;;;;;;;;;;;;;;;;5019541;28;19921;-76
2021/12/14 01:21:03;;;;;;;;;;;;;;;;;;5018652;28;20338;-76
2021/12/14 01:23:32;;;;;;;;;;;;;;;;;;5018983;28;19960;-76
2021/12/14 01:26:02;;;;;;;;;;;;;;;;;;5017627;28;19921;-75
2021/12/14 01:28:28;;;;;;;;;;;;;;;;;;5019491;28;20315;-75
2021/12/14 01:31:04;;;;;;;;;;;;;;;;;;5016406;28;19983;-75
2021/12/14 01:33:30;;;;;;;;;;;;;;;;;;5033510;28;19925;-75
2021/12/14 01:35:57;;;;;;;;;;;;;;;;;;5034280;28;20402;-75
2021/12/14 01:40:55;;;;;;;;;;;;;;;;;;5034368;28;19921;-75
2021/12/14 01:43:23;;;;;;;;;;;;;;;;;;5017039;28;20012;-75
2021/12/14 01:45:48;;;;;;;;;;;;;;;;;;5033803;28;20290;-76
2021/12/14 01:48:16;;;;;;;;;;;;;;;;;;5031684;28;19964;-76
2021/12/14 01:50:52;;;;;;;;;;;;;;;;;;5016761;28;20007;-75
2021/12/14 01:53:20;;;;;;;;;;;;;;;;;;5034571;28;19950;-75
2021/12/14 01:55:51;;;;;;;;;;;;;;;;;;5017141;28;19921;-75
2021/12/14 01:58:16;;;;;;;;;;;;;;;;;;5034214;28;19943;-75
2021/12/14 02:00:47;;;;;;;;;;;;;;;;;;5034130;28;19929;-75
2021/12/14 02:03:13;;;;;;;;;;;;;;;;;;5033529;28;19921;-75
2021/12/14 02:05:40;;;;;;;;;;;;;;;;;;5033850;28;19921;-75
2021/12/14 02:08:13;;;;;;;;;;;;;;;;;;5016493;28;20269;-75
2021/12/14 02:10:38;;;;;;;;;;;;;;;;;;5033722;28;19921;-75
2021/12/14 02:13:06;;;;;;;;;;;;;;;;;;5001508;28;19929;-75
2021/12/14 02:15:34;;;;;;;;;;;;;;;;;;5016368;28;20528;-76
2021/12/14 02:18:06;;;;;;;;;;;;;;;;;;5018039;28;20519;-76
2021/12/14 02:20:33;;;;;;;;;;;;;;;;;;5034118;28;19979;-76
2021/12/14 02:22:58;;;;;;;;;;;;;;;;;;5030833;28;19964;-76
2021/12/14 02:25:23;;;;;;;;;;;;;;;;;;5033862;28;19921;-75
2021/12/14 02:27:54;;;;;;;;;;;;;;;;;;5033503;28;20401;-76
2021/12/14 02:30:21;;;;;;;;;;;;;;;;;;5034029;28;19925;-76
2021/12/14 02:32:49;;;;;;;;;;;;;;;;;;5016044;28;19979;-75
2021/12/14 02:35:16;;;;;;;;;;;;;;;;;;5033495;28;19921;-75
2021/12/14 02:37:42;;;;;;;;;;;;;;;;;;5033535;28;20400;-75
2021/12/14 02:40:20;;;;;;;;;;;;;;;;;;5033547;28;19921;-76
2021/12/14 02:42:51;;;;;;;;;;;;;;;;;;5033106;28;19921;-75
2021/12/14 02:45:19;;;;;;;;;;;;;;;;;;5033452;28;19921;-75
2021/12/14 02:47:44;;;;;;;;;;;;;;;;;;5014440;28;19991;-76
2021/12/14 02:50:10;;;;;;;;;;;;;;;;;;5032833;28;19921;-76
2021/12/14 02:52:37;;;;;;;;;;;;;;;;;;5015827;28;20354;-76
2021/12/14 02:55:10;;;;;;;;;;;;;;;;;;5033425;28;19921;-75
2021/12/14 02:57:39;;;;;;;;;;;;;;;;;;5033723;28;19921;-76
2021/12/14 03:00:06;;;;;;;;;;;;;;;;;;5037432;28;19928;-75
2021/12/14 03:02:32;;;;;;;;;;;;;;;;;;5033671;28;20022;-75
2021/12/14 03:04:59;;;;;;;;;;;;;;;;;;5036641;28;20358;-76
2021/12/14 03:07:26;;;;;;;;;;;;;;;;;;5036606;28;19928;-76
2021/12/14 03:10:06;;;;;;;;;;;;;;;;;;5019448;28;19925;-76
2021/12/14 03:12:33;;;;;;;;;;;;;;;;;;5016060;28;19929;-75
2021/12/14 03:14:59;;;;;;;;;;;;;;;;;;5037158;28;20415;-75
2021/12/14 03:17:24;;;;;;;;;;;;;;;;;;5036181;28;19949;-76
2021/12/14 03:19:56;;;;;;;;;;;;;;;;;;5036666;28;19935;-76
2021/12/14 03:22:28;;;;;;;;;;;;;;;;;;5019141;28;19947;-75
2021/12/14 03:24:55;;;;;;;;;;;;;;;;;;5036943;28;20335;-75
2021/12/14 03:27:20;;;;;;;;;;;;;;;;;;5036384;28;19968;-75
2021/12/14 03:29:45;;;;;;;;;;;;;;;;;;5037039;28;20338;-74
2021/12/14 03:32:11;;;;;;;;;;;;;;;;;;5002569;28;19921;-75
2021/12/14 03:34:37;;;;;;;;;;;;;;;;;;5036627;28;20094;-74
2021/12/14 03:37:05;;;;;;;;;;;;;;;;;;5036409;28;19921;-74
2021/12/14 03:39:35;;;;;;;;;;;;;;;;;;5036620;28;20044;-75
2021/12/14 03:42:03;;;;;;;;;;;;;;;;;;5034648;28;19931;-75
2021/12/14 03:44:32;;;;;;;;;;;;;;;;;;5019683;28;19921;-74
2021/12/14 03:46:59;;;;;;;;;;;;;;;;;;5036289;28;19921;-75
2021/12/14 03:49:27;;;;;;;;;;;;;;;;;;5035922;28;19932;-75
2021/12/14 03:51:54;;;;;;;;;;;;;;;;;;5018578;28;19913;-75
2021/12/14 03:54:19;;;;;;;;;;;;;;;;;;5018515;28;19929;-76
2021/12/14 03:56:47;;;;;;;;;;;;;;;;;;5001615;28;19986;-77
2021/12/14 03:59:12;;;;;;;;;;;;;;;;;;5019099;28;20055;-76
2021/12/14 04:01:41;;;;;;;;;;;;;;;;;;5035817;28;20361;-76
2021/12/14 04:04:14;;;;;;;;;;;;;;;;;;5036237;28;20016;-75
2021/12/14 04:06:40;;;;;;;;;;;;;;;;;;5019252;28;19955;-75
2021/12/14 04:09:06;;;;;;;;;;;;;;;;;;5018480;28;19921;-76
2021/12/14 04:11:32;;;;;;;;;;;;;;;;;;5021562;28;19969;-76
2021/12/14 04:13:57;;;;;;;;;;;;;;;;;;5031034;28;19948;-76
2021/12/14 04:16:23;;;;;;;;;;;;;;;;;;5035399;28;19921;-76
2021/12/14 04:18:49;;;;;;;;;;;;;;;;;;5001742;28;19982;-76
2021/12/14 04:21:14;;;;;;;;;;;;;;;;;;5018129;28;19917;-75
2021/12/14 04:23:41;;;;;;;;;;;;;;;;;;5035488;28;19939;-76
2021/12/14 04:26:07;;;;;;;;;;;;;;;;;;5035815;28;19932;-77
2021/12/14 04:28:35;;;;;;;;;;;;;;;;;;5035984;28;20465;-76
2021/12/14 04:31:00;;;;;;;;;;;;;;;;;;5035952;28;20365;-76
2021/12/14 04:33:30;;;;;;;;;;;;;;;;;;5035389;28;19921;-76
2021/12/14 04:35:56;;;;;;;;;;;;;;;;;;5035529;28;19921;-76
2021/12/14 04:38:27;;;;;;;;;;;;;;;;;;5035444;28;19931;-75
2021/12/14 04:52:00;;;;;;;;;;;;;;;;;;5027277;28;19932;-76
2021/12/14 04:54:44;;;;;;;;;;;;;;;;;;5035488;28;19943;-76
2021/12/14 04:57:26;;;;;;;;;;;;;;;;;;5034929;28;20361;-75
2021/12/14 04:59:52;;;;;;;;;;;;;;;;;;5016869;28;19928;-76
2021/12/14 05:02:20;;;;;;;;;;;;;;;;;;5032016;28;19986;-76
2021/12/14 05:04:50;;;;;;;;;;;;;;;;;;5033937;28;19921;-76
2021/12/14 05:09:53;;;;;;;;;;;;;;;;;;5034227;28;19921;-76
2021/12/14 05:12:20;;;;;;;;;;;;;;;;;;5016605;28;19971;-75
2021/12/14 05:14:48;;;;;;;;;;;;;;;;;;5034614;28;19920;-75
2021/12/14 05:17:17;;;;;;;;;;;;;;;;;;5017140;28;20008;-75
2021/12/14 05:19:43;;;;;;;;;;;;;;;;;;5034404;28;20354;-76
2021/12/14 05:22:09;;;;;;;;;;;;;;;;;;5034291;28;19917;-76
2021/12/14 05:24:39;;;;;;;;;;;;;;;;;;5016786;28;19921;-76
2021/12/14 05:27:05;;;;;;;;;;;;;;;;;;5034856;28;20475;-76
2021/12/14 05:29:31;;;;;;;;;;;;;;;;;;5033951;28;19925;-76
2021/12/14 05:31:57;;;;;;;;;;;;;;;;;;5034514;28;20266;-76
2021/12/14 05:34:22;;;;;;;;;;;;;;;;;;5033650;28;20258;-77
2021/12/14 05:36:48;;;;;;;;;;;;;;;;;;5034242;28;19948;-76
2021/12/14 05:44:40;;;;;;;;;;;;;;;;;;5020297;28;19925;-75
2021/12/14 05:47:10;;;;;;;;;;;;;;;;;;5033548;28;19971;-75
2021/12/14 05:49:35;;;;;;;;;;;;;;;;;;5016427;28;19921;-75
2021/12/14 05:52:01;;;;;;;;;;;;;;;;;;5016886;28;20364;-76
2021/12/14 05:54:27;;;;;;;;;;;;;;;;;;5016525;28;19929;-75
2021/12/14 05:56:56;;;;;;;;;;;;;;;;;;5018502;28;19931;-76
2021/12/14 05:59:24;;;;;;;;;;;;;;;;;;5033917;28;20362;-76
2021/12/14 06:01:50;;;;;;;;;;;;;;;;;;5006316;28;20017;-75
2021/12/14 06:04:20;;;;;;;;;;;;;;;;;;5033102;28;19985;-75
2021/12/14 06:06:48;;;;;;;;;;;;;;;;;;5029629;28;19921;-76
2021/12/14 06:09:14;;;;;;;;;;;;;;;;;;5015619;28;20016;-75
2021/12/14 06:11:43;;;;;;;;;;;;;;;;;;5033816;28;19925;-76
2021/12/14 06:14:13;;;;;;;;;;;;;;;;;;5033378;28;19932;-76
2021/12/14 06:16:40;;;;;;;;;;;;;;;;;;5033641;28;20350;-76
2021/12/14 06:19:12;;;;;;;;;;;;;;;;;;5033221;28;19921;-76
2021/12/14 06:21:39;;;;;;;;;;;;;;;;;;5033811;28;19921;-76
2021/12/14 06:24:06;;;;;;;;;;;;;;;;;;5032031;28;19952;-76
2021/12/14 06:26:35;;;;;;;;;;;;;;;;;;5016497;28;20118;-76
2021/12/14 06:29:11;;;;;;;;;;;;;;;;;;5017015;28;19975;-75
2021/12/14 06:31:37;;;;;;;;;;;;;;;;;;5033257;28;19979;-75
2021/12/14 06:34:14;;;;;;;;;;;;;;;;;;5032619;28;19948;-76
2021/12/14 06:36:50;;;;;;;;;;;;;;;;;;5016114;28;19925;-76
2021/12/14 06:39:15;;;;;;;;;;;;;;;;;;5032817;28;19921;-76
2021/12/14 06:41:41;;;;;;;;;;;;;;;;;;5033274;28;19925;-75
2021/12/14 06:44:06;;;;;;;;;;;;;;;;;;5016418;28;19921;-76
2021/12/14 06:46:33;;;;;;;;;;;;;;;;;;5015708;28;19929;-75
2021/12/14 06:49:01;;;;;;;;;;;;;;;;;;5032652;28;19940;-76
2021/12/14 06:51:31;;;;;;;;;;;;;;;;;;5033182;28;20059;-75
2021/12/14 06:53:58;;;;;;;;;;;;;;;;;;5032962;28;19940;-75
2021/12/14 06:56:24;;;;;;;;;;;;;;;;;;5033032;28;19921;-76
2021/12/14 06:58:52;;;;;;;;;;;;;;;;;;5033412;28;19917;-75
2021/12/14 07:01:19;;;;;;;;;;;;;;;;;;5033425;28;19929;-76
2021/12/14 07:03:49;;;;;;;;;;;;;;;;;;5032793;28;19987;-75
2021/12/14 07:06:28;;;;;;;;;;;;;;;;;;5016088;28;19972;-75
2021/12/14 07:08:55;;;;;;;;;;;;;;;;;;5016323;28;19928;-75
2021/12/14 07:11:21;;;;;;;;;;;;;;;;;;5016244;28;19925;-75
2021/12/14 07:13:47;;;;;;;;;;;;;;;;;;5032946;28;19921;-76
2021/12/14 07:16:20;;;;;;;;;;;;;;;;;;5015660;28;19929;-76
2021/12/14 07:18:46;;;;;;;;;;;;;;;;;;5032788;28;20350;-75
2021/12/14 07:21:11;;;;;;;;;;;;;;;;;;5018290;28;19917;-76
2021/12/14 07:23:37;;;;;;;;;;;;;;;;;;5033113;28;19940;-76
2021/12/14 07:26:09;;;;;;;;;;;;;;;;;;5032514;28;20008;-75
2021/12/14 07:28:37;;;;;;;;;;;;;;;;;;5032974;28;20357;-75
2021/12/14 07:31:03;;;;;;;;;;;;;;;;;;5015639;28;19970;-76
2021/12/14 07:33:31;;;;;;;;;;;;;;;;;;5032685;28;19921;-75
2021/12/14 07:36:00;;;;;;;;;;;;;;;;;;5033242;28;20003;-76
2021/12/14 07:38:32;;;;;;;;;;;;;;;;;;5032880;28;19921;-76
2021/12/14 07:40:57;;;;;;;;;;;;;;;;;;5026186;28;20369;-75
2021/12/14 07:43:24;;;;;;;;;;;;;;;;;;5033153;28;19921;-75
2021/12/14 07:45:51;;;;;;;;;;;;;;;;;;5036060;28;19921;-75
2021/12/14 07:48:17;;;;;;;;;;;;;;;;;;5018263;28;20231;-75
2021/12/14 07:50:42;;;;;;;;;;;;;;;;;;5018319;28;19983;-76
2021/12/14 07:53:07;;;;;;;;;;;;;;;;;;5037368;28;20308;-75
2021/12/14 07:55:36;;;;;;;;;;;;;;;;;;5035595;28;20259;-76
2021/12/14 07:58:02;;;;;;;;;;;;;;;;;;5036161;28;19971;-75
2021/12/14 08:00:35;;;;;;;;;;;;;;;;;;5035568;28;19932;-76
2021/12/14 08:03:01;;;;;;;;;;;;;;;;;;5019293;28;20421;-76
2021/12/14 08:05:27;;;;;;;;;;;;;;;;;;5036442;28;19996;-76
2021/12/14 08:08:09;;;;;;;;;;;;;;;;;;5036054;28;19972;-76
2021/12/14 08:10:38;;;;;;;;;;;;;;;;;;5018921;28;19921;-75
2021/12/14 08:13:20;;;;;;;;;;;;;;;;;;5018857;28;19921;-75
2021/12/14 08:15:49;;;;;;;;;;;;;;;;;;5033813;28;20266;-76
2021/12/14 08:18:34;;;;;;;;;;;;;;;;;;5036101;28;20003;-76
2021/12/14 08:21:06;;;;;;;;;;;;;;;;;;5019332;28;19932;-76
2021/12/14 08:23:36;;;;;;;;;;;;;;;;;;5021212;28;19921;-76
2021/12/14 08:26:12;;;;;;;;;;;;;;;;;;5018227;28;19921;-76
2021/12/14 08:28:55;;;;;;;;;;;;;;;;;;5035795;28;19921;-76
2021/12/14 08:31:22;;;;;;;;;;;;;;;;;;5019912;28;19920;-76
2021/12/14 08:33:52;;;;;;;;;;;;;;;;;;5035476;28;19979;-76
2021/12/14 08:36:17;;;;;;;;;;;;;;;;;;5018164;28;19988;-76
2021/12/14 08:38:43;;;;;;;;;;;;;;;;;;5036298;28;19947;-76
2021/12/14 08:41:19;;;;;;;;;;;;;;;;;;5017902;28;20335;-76
2021/12/14 08:43:52;;;;;;;;;;;;;;;;;;5035478;28;19979;-76
2021/12/14 08:46:24;;;;;;;;;;;;;;;;;;5018745;28;19920;-76
2021/12/14 08:48:50;;;;;;;;;;;;;;;;;;5034953;28;20446;-76
2021/12/14 08:51:17;;;;;;;;;;;;;;;;;;5024233;28;20235;-76
2021/12/14 08:53:44;;;;;;;;;;;;;;;;;;5039412;28;19980;-76
2021/12/14 08:56:13;;;;;;;;;;;;;;;;;;5033948;28;20235;-76
2021/12/14 08:58:39;;;;;;;;;;;;;;;;;;5025185;28;19931;-76
2021/12/14 09:01:08;;;;;;;;;;;;;;;;;;5035247;28;19921;-76
2021/12/14 09:03:36;;;;;;;;;;;;;;;;;;5023901;28;19925;-76
2021/12/14 09:06:05;;;;;;;;;;;;;;;;;;5034414;28;20301;-76
2021/12/14 09:08:35;;;;;;;;;;;;;;;;;;5024422;28;20390;-75
2021/12/14 09:11:01;;;;;;;;;;;;;;;;;;5013629;28;20413;-76
2021/12/14 09:13:26;;;;;;;;;;;;;;;;;;5033222;28;19917;-76
2021/12/14 09:16:00;;;;;;;;;;;;;;;;;;4999070;28;19979;-77
2021/12/14 09:18:26;;;;;;;;;;;;;;;;;;5032585;28;20282;-77
2021/12/14 09:20:55;;;;;;;;;;;;;;;;;;5036121;28;19921;-77
2021/12/14 09:23:22;;;;;;;;;;;;;;;;;;5037833;28;20400;-77
2021/12/14 09:25:47;;;;;;;;;;;;;;;;;;5035157;28;19983;-77
2021/12/14 09:28:13;;;;;;;;;;;;;;;;;;5033344;28;20290;-77
2021/12/14 09:30:44;;;;;;;;;;;;;;;;;;5033804;28;20008;-76
2021/12/14 09:33:09;;;;;;;;;;;;;;;;;;5016394;28;19921;-75
2021/12/14 09:35:35;;;;;;;;;;;;;;;;;;5018842;28;19978;-77
2021/12/14 09:38:05;;;;;;;;;;;;;;;;;;5015865;28;19940;-76
2021/12/14 09:40:32;;;;;;;;;;;;;;;;;;5033349;28;19932;-76
2021/12/14 09:42:58;;;;;;;;;;;;;;;;;;5033197;28;19933;-76
2021/12/14 09:45:27;;;;;;;;;;;;;;;;;;5015154;28;20445;-77
2021/12/14 09:47:55;;;;;;;;;;;;;;;;;;5018576;28;19920;-76
2021/12/14 09:50:23;;;;;;;;;;;;;;;;;;5023308;28;19921;-77
2021/12/14 09:52:55;;;;;;;;;;;;;;;;;;5036759;28;19929;-78
2021/12/14 09:55:24;;;;;;;;;;;;;;;;;;5032229;28;19925;-77
2021/12/14 09:57:56;;;;;;;;;;;;;;;;;;5033297;28;20377;-78
2021/12/14 10:00:23;;;;;;;;;;;;;;;;;;5032007;28;20354;-77
2021/12/14 10:02:49;;;;;;;;;;;;;;;;;;5031882;28;19928;-75
2021/12/14 10:05:25;;;;;;;;;;;;;;;;;;5032324;28;19921;-77
2021/12/14 10:07:51;;;;;;;;;;;;;;;;;;5014322;28;19947;-77
2021/12/14 10:10:18;;;;;;;;;;;;;;;;;;5032819;28;19921;-77
2021/12/14 10:12:53;;;;;;;;;;;;;;;;;;5030022;28;20309;-77
2021/12/14 10:15:25;;;;;;;;;;;;;;;;;;5031924;28;19932;-77
2021/12/14 10:17:50;;;;;;;;;;;;;;;;;;5032966;28;20362;-76
2021/12/14 10:20:21;;;;;;;;;;;;;;;;;;5015820;28;19932;-77
2021/12/14 10:22:51;;;;;;;;;;;;;;;;;;5032111;28;20448;-77
2021/12/14 10:25:17;;;;;;;;;;;;;;;;;;5013208;28;19936;-77
2021/12/14 10:27:42;;;;;;;;;;;;;;;;;;5031125;28;19975;-77
2021/12/14 10:30:09;;;;;;;;;;;;;;;;;;5014461;28;20254;-78
2021/12/14 10:32:35;;;;;;;;;;;;;;;;;;5014214;28;19917;-78
2021/12/14 10:35:03;;;;;;;;;;;;;;;;;;5014348;28;19933;-77
2021/12/14 10:37:51;;;;;;;;;;;;;;;;;;5032327;28;19928;-77
2021/12/14 10:43:13;;;;;;;;;;;;;;;;;;5030881;28;20012;-77
2021/12/14 10:45:41;;;;;;;;;;;;;;;;;;5029647;28;20482;-75
2021/12/14 10:48:06;;;;;;;;;;;;;;;;;;5033107;28;19932;-75
2021/12/14 10:50:32;;;;;;;;;;;;;;;;;;5037791;28;19909;-77
2021/12/14 10:53:01;;;;;;;;;;;;;;;;;;5014359;28;20358;-76
2021/12/14 10:55:40;;;;;;;;;;;;;;;;;;5012074;28;19932;-76
2021/12/14 10:58:08;;;;;;;;;;;;;;;;;;5031455;28;19979;-77
2021/12/14 11:00:38;;;;;;;;;;;;;;;;;;5029637;28;20365;-77
2021/12/14 11:03:07;;;;;;;;;;;;;;;;;;5014749;28;19928;-77
2021/12/14 11:05:36;;;;;;;;;;;;;;;;;;5014249;28;19928;-76
2021/12/14 11:08:02;;;;;;;;;;;;;;;;;;5042300;28;19920;-76
2021/12/14 11:10:34;;;;;;;;;;;;;;;;;;5000511;28;19925;-75
2021/12/14 11:13:02;;;;;;;;;;;;;;;;;;5032641;28;19960;-76
2021/12/14 11:15:32;;;;;;;;;;;;;;;;;;5027827;28;19948;-81
2021/12/14 11:18:11;;;;;;;;;;;;;;;;;;5037699;28;19917;-76
2021/12/14 11:20:43;;;;;;;;;;;;;;;;;;5031859;28;19928;-79
2021/12/14 11:23:35;;;;;;;;;;;;;;;;;;5028722;28;19925;-79
2021/12/14 11:26:08;;;;;;;;;;;;;;;;;;4989540;28;19953;-79
2021/12/14 11:28:38;;;;;;;;;;;;;;;;;;5025141;28;19960;-78
2021/12/14 11:31:13;;;;;;;;;;;;;;;;;;5014904;28;20346;-78
2021/12/14 11:34:00;;;;;;;;;;;;;;;;;;5024412;28;19984;-79
2021/12/14 11:36:32;;;;;;;;;;;;;;;;;;5025862;28;19922;-79
2021/12/14 11:39:18;;;;;;;;;;;;;;;;;;5014972;28;19921;-78
2021/12/14 11:41:43;;;;;;;;;;;;;;;;;;5028292;28;20285;-80
2021/12/14 11:44:24;;;;;;;;;;;;;;;;;;5027439;28;20416;-81
2021/12/14 11:46:56;;;;;;;;;;;;;;;;;;5023081;28;19925;-78
2021/12/14 11:49:22;;;;;;;;;;;;;;;;;;5031713;28;19921;-78
2021/12/14 11:51:48;;;;;;;;;;;;;;;;;;5030485;28;20385;-80
2021/12/14 11:54:15;;;;;;;;;;;;;;;;;;5030670;28;19925;-80
2021/12/14 11:56:40;;;;;;;;;;;;;;;;;;5008955;28;20338;-80
2021/12/14 11:59:06;;;;;;;;;;;;;;;;;;5008723;28;19964;-79
2021/12/14 12:01:34;;;;;;;;;;;;;;;;;;5028308;28;20020;-80
2021/12/14 12:04:01;;;;;;;;;;;;;;;;;;5028262;28;19933;-82
2021/12/14 12:09:28;;;;;;;;;;;;;;;;;;5011058;28;19932;-79
2021/12/14 12:11:55;;;;;;;;;;;;;;;;;;5022684;28;19922;-78
2021/12/14 12:14:39;;;;;;;;;;;;;;;;;;5025385;28;19972;-83
2021/12/14 12:17:32;;;;;;;;;;;;;;;;;;5027375;28;19925;-79
2021/12/14 12:20:09;;;;;;;;;;;;;;;;;;5032218;28;19968;-77
2021/12/14 12:23:03;;;;;;;;;;;;;;;;;;5016759;28;19925;-78
2021/12/14 12:25:32;;;;;;;;;;;;;;;;;;5016398;28;20313;-78
2021/12/14 12:27:57;;;;;;;;;;;;;;;;;;5008672;28;19943;-78
2021/12/14 12:30:52;;;;;;;;;;;;;;;;;;5026868;28;19929;-78
2021/12/14 12:33:23;;;;;;;;;;;;;;;;;;5009660;28;19928;-81
2021/12/14 12:35:50;;;;;;;;;;;;;;;;;;5030056;28;19921;-82
2021/12/14 12:38:21;;;;;;;;;;;;;;;;;;5028094;28;19920;-82
2021/12/14 12:40:49;;;;;;;;;;;;;;;;;;5026124;28;19922;-80
2021/12/14 12:43:16;;;;;;;;;;;;;;;;;;5024369;28;19956;-80
2021/12/14 12:45:50;;;;;;;;;;;;;;;;;;5029198;28;20479;-77
2021/12/14 12:48:35;;;;;;;;;;;;;;;;;;5008973;28;19921;-77
2021/12/14 12:51:01;;;;;;;;;;;;;;;;;;5023952;28;20366;-77
2021/12/14 12:53:28;;;;;;;;;;;;;;;;;;5010978;28;19928;-78
2021/12/14 12:56:08;;;;;;;;;;;;;;;;;;5010460;28;19921;-79
2021/12/14 12:58:38;;;;;;;;;;;;;;;;;;5007923;28;19932;-78
2021/12/14 13:01:03;;;;;;;;;;;;;;;;;;5024226;28;20375;-80
2021/12/14 13:03:46;;;;;;;;;;;;;;;;;;5024448;28;19967;-84
2021/12/14 13:06:19;;;;;;;;;;;;;;;;;;5023777;28;19921;-82
2021/12/14 13:08:45;;;;;;;;;;;;;;;;;;5028983;28;19975;-80
2021/12/14 13:11:15;;;;;;;;;;;;;;;;;;4992414;28;19996;-80
2021/12/14 13:13:45;;;;;;;;;;;;;;;;;;4997883;28;20324;-78
2021/12/14 13:16:11;;;;;;;;;;;;;;;;;;5021557;28;20015;-80
2021/12/14 13:18:37;;;;;;;;;;;;;;;;;;5028665;28;19921;-80
2021/12/14 13:21:07;;;;;;;;;;;;;;;;;;5022898;28;19988;-82
2021/12/14 13:23:40;;;;;;;;;;;;;;;;;;5019248;28;19929;-81
2021/12/14 13:26:24;;;;;;;;;;;;;;;;;;5023958;28;20290;-80
2021/12/14 13:28:50;;;;;;;;;;;;;;;;;;5019509;28;19937;-81
2021/12/14 13:31:28;;;;;;;;;;;;;;;;;;5023410;28;19925;-81
2021/12/14 13:33:53;;;;;;;;;;;;;;;;;;5024723;28;19925;-80
2021/12/14 13:36:21;;;;;;;;;;;;;;;;;;4990006;28;20399;-80
2021/12/14 13:38:47;;;;;;;;;;;;;;;;;;5022831;28;19955;-82
2021/12/14 13:41:18;;;;;;;;;;;;;;;;;;5009678;28;20294;-78
2021/12/14 13:43:43;;;;;;;;;;;;;;;;;;5007511;28;20254;-79
2021/12/14 13:46:08;;;;;;;;;;;;;;;;;;5024941;28;19929;-80
2021/12/14 13:48:37;;;;;;;;;;;;;;;;;;5010352;28;20023;-79
2021/12/14 13:51:06;;;;;;;;;;;;;;;;;;5011834;28;19922;-80
2021/12/14 13:53:32;;;;;;;;;;;;;;;;;;5022122;28;19925;-77
2021/12/14 13:56:02;;;;;;;;;;;;;;;;;;5012846;28;19929;-77
2021/12/14 13:58:29;;;;;;;;;;;;;;;;;;5020461;28;19956;-82
2021/12/14 14:00:56;;;;;;;;;;;;;;;;;;5009448;28;19991;-80
2021/12/14 14:03:26;;;;;;;;;;;;;;;;;;5032103;28;19921;-79
2021/12/14 14:05:52;;;;;;;;;;;;;;;;;;5016043;28;19931;-79
2021/12/14 14:08:18;;;;;;;;;;;;;;;;;;5034813;28;20346;-79
2021/12/14 14:10:50;;;;;;;;;;;;;;;;;;5033961;28;20265;-81
2021/12/14 14:13:35;;;;;;;;;;;;;;;;;;5015651;28;20250;-81
2021/12/14 14:16:01;;;;;;;;;;;;;;;;;;5030396;28;20032;-81
2021/12/14 14:18:37;;;;;;;;;;;;;;;;;;5035260;28;20004;-81
2021/12/14 14:21:07;;;;;;;;;;;;;;;;;;5004851;28;19968;-82
2021/12/14 14:23:40;;;;;;;;;;;;;;;;;;5022407;28;19921;-81
2021/12/14 14:26:29;;;;;;;;;;;;;;;;;;5033441;28;19929;-81
2021/12/14 14:29:02;;;;;;;;;;;;;;;;;;5025079;28;19925;-81
2021/12/14 14:31:31;;;;;;;;;;;;;;;;;;5020172;28;19964;-82
2021/12/14 14:33:59;;;;;;;;;;;;;;;;;;5032790;28;19948;-80
2021/12/14 14:36:33;;;;;;;;;;;;;;;;;;5033386;28;19921;-81
2021/12/14 14:39:24;;;;;;;;;;;;;;;;;;5034334;28;19983;-80
2021/12/14 14:41:51;;;;;;;;;;;;;;;;;;5028834;28;19936;-81
2021/12/14 14:44:21;;;;;;;;;;;;;;;;;;5033094;28;19951;-81
2021/12/14 14:46:47;;;;;;;;;;;;;;;;;;5033178;28;19931;-81
2021/12/14 14:49:21;;;;;;;;;;;;;;;;;;5033155;28;20023;-83
2021/12/14 14:51:54;;;;;;;;;;;;;;;;;;5015675;28;19928;-81
2021/12/14 14:54:34;;;;;;;;;;;;;;;;;;5017784;28;20354;-81
2021/12/14 14:57:12;;;;;;;;;;;;;;;;;;5035531;28;20081;-79
2021/12/14 14:59:39;;;;;;;;;;;;;;;;;;5020082;28;19940;-79
2021/12/14 15:02:05;;;;;;;;;;;;;;;;;;5037409;28;19932;-78
2021/12/14 15:04:30;;;;;;;;;;;;;;;;;;5003677;28;19992;-81
2021/12/14 15:06:55;;;;;;;;;;;;;;;;;;5020097;28;20039;-81
2021/12/14 15:09:31;;;;;;;;;;;;;;;;;;5020153;28;20449;-81
2021/12/14 15:11:57;;;;;;;;;;;;;;;;;;5036520;28;20416;-80
2021/12/14 15:14:32;;;;;;;;;;;;;;;;;;5036826;28;19921;-80
2021/12/14 15:17:00;;;;;;;;;;;;;;;;;;5037676;28;20012;-80
2021/12/14 15:19:27;;;;;;;;;;;;;;;;;;5037148;28;20015;-80
2021/12/14 15:21:52;;;;;;;;;;;;;;;;;;5036232;28;20027;-80
2021/12/14 15:24:32;;;;;;;;;;;;;;;;;;5036736;28;20016;-80
2021/12/14 15:27:12;;;;;;;;;;;;;;;;;;5036871;28;19921;-80
2021/12/14 15:29:56;;;;;;;;;;;;;;;;;;5036987;28;20514;-80
2021/12/14 15:32:23;;;;;;;;;;;;;;;;;;5036463;28;19921;-80
2021/12/14 15:35:27;;;;;;;;;;;;;;;;;;5036288;28;19940;-80
2021/12/14 15:37:56;;;;;;;;;;;;;;;;;;4953292;28;19938;-82
2021/12/14 15:40:22;;;;;;;;;;;;;;;;;;4954180;28;19922;-78
2021/12/14 15:42:47;;;;;;;;;;;;;;;;;;4953335;28;20468;-80
2021/12/14 15:45:31;;;;;;;;;;;;;;;;;;4935232;29;19942;-81
2021/12/14 15:51:02;;;;;;;;;;;;;;;;;;4952242;28;20017;-80
2021/12/14 15:53:36;;;;;;;;;;;;;;;;;;4955505;28;19966;-80
2021/12/14 15:56:10;;;;;;;;;;;;;;;;;;4953039;28;20395;-79
2021/12/14 15:58:37;;;;;;;;;;;;;;;;;;4952569;28;19934;-78
2021/12/14 16:01:10;;;;;;;;;;;;;;;;;;4951368;28;20464;-79
2021/12/14 16:03:48;;;;;;;;;;;;;;;;;;4990625;28;19970;-82
2021/12/14 16:06:13;;;;;;;;;;;;;;;;;;5023019;28;19925;-80
2021/12/14 16:08:45;;;;;;;;;;;;;;;;;;5014013;28;19999;-81
2021/12/14 16:11:33;;;;;;;;;;;;;;;;;;5014772;28;20034;-80
2021/12/14 16:17:10;;;;;;;;;;;;;;;;;;5023421;28;20297;-81
2021/12/14 16:19:37;;;;;;;;;;;;;;;;;;5027977;28;19933;-80
2021/12/14 16:22:13;;;;;;;;;;;;;;;;;;5026909;28;19964;-80
2021/12/14 16:24:39;;;;;;;;;;;;;;;;;;5011734;28;19921;-80
2021/12/14 16:27:04;;;;;;;;;;;;;;;;;;5009027;28;19932;-80
2021/12/14 16:29:31;;;;;;;;;;;;;;;;;;5021240;28;19925;-82
2021/12/14 16:31:59;;;;;;;;;;;;;;;;;;4997892;28;19928;-81
2021/12/14 16:34:25;;;;;;;;;;;;;;;;;;5007373;28;20287;-79
2021/12/14 16:36:59;;;;;;;;;;;;;;;;;;5028030;28;19933;-81
2021/12/14 16:39:29;;;;;;;;;;;;;;;;;;5021245;28;19922;-79
2021/12/14 16:41:55;;;;;;;;;;;;;;;;;;5011661;28;19921;-80
2021/12/14 16:44:24;;;;;;;;;;;;;;;;;;5027166;28;19925;-80
2021/12/14 16:46:57;;;;;;;;;;;;;;;;;;5016825;28;19925;-82
2021/12/14 16:49:25;;;;;;;;;;;;;;;;;;5011143;28;19983;-81
2021/12/14 16:51:56;;;;;;;;;;;;;;;;;;5013524;28;19924;-81
2021/12/14 16:54:22;;;;;;;;;;;;;;;;;;4999891;28;19932;-81
2021/12/14 16:56:52;;;;;;;;;;;;;;;;;;5030988;28;19921;-81
2021/12/14 16:59:46;;;;;;;;;;;;;;;;;;5030181;28;20458;-80
2021/12/14 17:02:19;;;;;;;;;;;;;;;;;;5029305;28;20358;-81
2021/12/14 17:04:45;;;;;;;;;;;;;;;;;;5030709;28;20390;-82
2021/12/14 17:07:17;;;;;;;;;;;;;;;;;;5012698;28;19929;-82
2021/12/14 17:09:55;;;;;;;;;;;;;;;;;;5011960;28;19924;-82
2021/12/14 17:12:27;;;;;;;;;;;;;;;;;;5012796;28;19944;-82
2021/12/14 17:15:03;;;;;;;;;;;;;;;;;;5028747;28;19921;-84
2021/12/14 17:17:33;;;;;;;;;;;;;;;;;;5011521;28;19929;-82
2021/12/14 17:20:04;;;;;;;;;;;;;;;;;;4995565;28;20437;-81
2021/12/14 17:22:33;;;;;;;;;;;;;;;;;;5029139;28;19921;-83
2021/12/14 17:25:07;;;;;;;;;;;;;;;;;;5010833;28;19982;-80
2021/12/14 17:27:39;;;;;;;;;;;;;;;;;;5030881;28;19932;-82
2021/12/14 17:30:12;;;;;;;;;;;;;;;;;;5028776;28;19921;-85
2021/12/14 17:32:58;;;;;;;;;;;;;;;;;;5030589;28;19925;-84
2021/12/14 17:35:29;;;;;;;;;;;;;;;;;;5030925;28;19975;-84
2021/12/14 17:37:59;;;;;;;;;;;;;;;;;;5014641;28;19975;-86
2021/12/14 17:40:31;;;;;;;;;;;;;;;;;;5029054;28;20051;-84